ウラジオストク の空港の天気 - METARとTAF

ウラジオストク空港 ( UHWW / VVO ) - ロシア ウラジオストク
飛行場実況気象(Metar)
観測時間11/18 19:30 VLAT (11/18 09:30 UTC)
風向・風速西北西 6m/s
視程10km以上
天気現象
なし
気温-5℃
湿度45%
気圧1012hPa
METARUHWW 180930Z 29006MPS 9999 NSC M05/M15 Q1012 R25L/820255 NOSIG RMK QFE758
過去の天気等 Google飛行場航空写真 Wunderground天気予報

過去48時間のMETAR

飛行場予報(TAF)
発表時間: 11/18 18:00 VLAT (11/18 08:00 UTC)
予報対象時間: 18日19時 VLAT ~ 19日19時 VLAT
風向・風速西北西 6m/s
視程10km以上
全天の4割程度の雲 雲底高度 760m
18日19時 VLAT ~ 19日19時 VLAT に一時的に
風向・風速西北西 13m/s
視程3100m
天気現象弱いしゅう雪
全天の8割程度の雲 雲底高度 300m
全天の8割程度の積乱雲 雲底高度 610m
TAF UHWW 180800Z 1809/1909 30006MPS 9999 SCT025
TEMPO 1809/1909 30013MPS 3100 -SHSN BKN010 BKN020CB